createdAt,value
2022-09-04T00:01:34.872Z,44.50
2022-09-04T00:04:37.119Z,44.50
2022-09-04T00:07:43.314Z,44.90
2022-09-04T00:10:30.019Z,44.70
2022-09-04T00:13:27.743Z,44.70
2022-09-04T00:16:06.956Z,45.00
2022-09-04T00:18:53.719Z,44.90
2022-09-04T00:21:34.882Z,45.20
2022-09-04T00:24:22.993Z,45.10
2022-09-04T00:27:21.386Z,45.50
2022-09-04T00:30:05.728Z,45.40
2022-09-04T00:32:45.716Z,45.50
2022-09-04T00:35:32.554Z,45.70
2022-09-04T00:38:03.930Z,45.50
2022-09-04T00:40:42.521Z,45.60
2022-09-04T00:43:30.764Z,45.80
2022-09-04T00:46:27.394Z,45.80
2022-09-04T00:49:42.096Z,46.10
2022-09-04T00:53:06.052Z,46.30
2022-09-04T00:56:11.070Z,46.30
2022-09-04T00:59:42.061Z,46.20
2022-09-04T01:02:22.170Z,46.50
2022-09-04T01:05:38.586Z,46.20
2022-09-04T01:08:56.699Z,46.60
2022-09-04T01:12:07.912Z,46.50
2022-09-04T01:15:11.345Z,46.70
2022-09-04T01:17:54.513Z,46.70
2022-09-04T01:21:08.107Z,46.50
2022-09-04T01:24:13.809Z,46.80
2022-09-04T01:26:55.618Z,46.90
2022-09-04T01:29:57.333Z,46.80
2022-09-04T01:32:48.185Z,47.00
2022-09-04T01:35:48.416Z,46.80
2022-09-04T01:38:50.840Z,47.00
2022-09-04T01:41:29.608Z,47.00
2022-09-04T01:43:56.614Z,46.90
2022-09-04T01:46:49.399Z,46.90
2022-09-04T01:49:30.975Z,47.10
2022-09-04T01:52:08.285Z,47.20
2022-09-04T01:54:59.682Z,47.00
2022-09-04T01:58:00.915Z,47.10
2022-09-04T02:00:34.898Z,47.40
2022-09-04T02:03:25.509Z,47.10
2022-09-04T02:06:30.992Z,47.70
2022-09-04T02:09:11.618Z,47.40
2022-09-04T02:11:57.053Z,47.20
2022-09-04T02:14:40.840Z,47.10
2022-09-04T02:17:33.945Z,47.30
2022-09-04T02:20:24.139Z,47.20
2022-09-04T02:23:30.051Z,47.30
2022-09-04T02:26:10.854Z,47.50
2022-09-04T02:29:03.738Z,47.20
2022-09-04T02:31:49.491Z,47.50
2022-09-04T02:34:51.363Z,47.40
2022-09-04T02:37:51.578Z,47.40
2022-09-04T02:40:49.873Z,47.50
2022-09-04T02:44:07.121Z,47.50
2022-09-04T02:46:54.030Z,47.60
2022-09-04T02:49:58.511Z,47.50
2022-09-04T02:52:42.521Z,47.70
2022-09-04T02:55:45.404Z,47.50
2022-09-04T02:58:32.686Z,47.80
2022-09-04T03:01:17.444Z,47.70
2022-09-04T03:04:15.447Z,48.10
2022-09-04T03:07:01.114Z,47.80
2022-09-04T03:09:47.854Z,47.70
2022-09-04T03:12:37.386Z,47.70
2022-09-04T03:15:34.997Z,47.80
2022-09-04T03:18:28.360Z,47.80
2022-09-04T03:21:16.574Z,47.90
2022-09-04T03:24:07.557Z,47.80
2022-09-04T03:26:44.592Z,48.00
2022-09-04T03:29:52.801Z,48.00
2022-09-04T03:32:33.056Z,48.00
2022-09-04T03:35:23.630Z,48.00
2022-09-04T03:38:30.482Z,48.10
2022-09-04T03:41:42.546Z,48.30
2022-09-04T03:44:37.270Z,48.30
2022-09-04T03:47:31.306Z,48.10
2022-09-04T03:50:29.280Z,48.30
2022-09-04T03:53:27.266Z,48.50
2022-09-04T03:56:47.552Z,48.40
2022-09-04T03:59:46.131Z,48.50
2022-09-04T04:03:00.009Z,48.20
2022-09-04T04:06:08.813Z,48.40
2022-09-04T04:09:12.635Z,48.10
2022-09-04T04:11:50.513Z,48.20
2022-09-04T04:15:01.737Z,48.40
2022-09-04T04:17:40.269Z,48.50
2022-09-04T04:20:41.072Z,48.50
2022-09-04T04:23:58.050Z,48.80
2022-09-04T04:27:09.697Z,48.70
2022-09-04T04:29:58.818Z,48.80
2022-09-04T04:32:44.258Z,48.80
2022-09-04T04:35:45.259Z,48.80
2022-09-04T04:38:20.774Z,48.70
2022-09-04T04:41:12.359Z,48.80
2022-09-04T04:44:43.991Z,48.80
2022-09-04T04:47:37.086Z,49.10
2022-09-04T04:50:40.142Z,49.00
2022-09-04T04:53:24.874Z,49.00
2022-09-04T04:56:14.095Z,49.00
2022-09-04T04:59:20.691Z,49.10
2022-09-04T05:02:08.260Z,49.30
2022-09-04T05:05:04.976Z,49.10
2022-09-04T05:08:08.426Z,49.10
2022-09-04T05:10:54.835Z,49.30
2022-09-04T05:14:24.370Z,49.30
2022-09-04T05:17:14.737Z,49.50
2022-09-04T05:20:20.375Z,49.20
2022-09-04T05:23:00.866Z,49.50
2022-09-04T05:25:36.001Z,49.40
2022-09-04T05:28:24.398Z,49.50
2022-09-04T05:31:15.280Z,49.50
2022-09-04T05:34:11.652Z,49.70
2022-09-04T05:37:10.387Z,49.70
2022-09-04T05:40:04.470Z,49.80
2022-09-04T05:43:04.400Z,49.90
2022-09-04T05:46:10.921Z,49.80
2022-09-04T05:49:26.192Z,49.80
2022-09-04T05:52:06.274Z,49.80
2022-09-04T05:54:53.294Z,49.70
2022-09-04T05:57:43.159Z,49.50
2022-09-04T06:00:19.422Z,49.80
2022-09-04T06:03:22.120Z,50.30
2022-09-04T06:06:12.823Z,49.80
2022-09-04T06:09:07.298Z,49.70
2022-09-04T06:11:58.876Z,49.60
2022-09-04T06:14:50.006Z,49.70
2022-09-04T06:18:05.082Z,49.70
2022-09-04T06:20:45.380Z,49.50
2022-09-04T06:23:41.281Z,49.40
2022-09-04T06:26:27.428Z,49.60
2022-09-04T06:29:15.441Z,49.60
2022-09-04T06:32:08.095Z,49.50
2022-09-04T06:35:03.994Z,49.60
2022-09-04T06:37:55.530Z,49.80
2022-09-04T06:41:13.383Z,49.30
2022-09-04T06:43:57.953Z,49.50
2022-09-04T06:46:59.832Z,49.40
2022-09-04T06:50:12.473Z,49.50
2022-09-04T06:53:09.128Z,49.40
2022-09-04T06:56:03.111Z,49.30
2022-09-04T06:59:13.820Z,49.30
2022-09-04T07:02:23.588Z,49.40
2022-09-04T07:05:22.617Z,49.20
2022-09-04T07:08:38.376Z,49.20
2022-09-04T07:11:17.027Z,49.80
2022-09-04T07:14:34.586Z,49.10
2022-09-04T07:17:33.575Z,49.30
2022-09-04T07:20:36.074Z,49.30
2022-09-04T07:23:30.821Z,49.30
2022-09-04T07:26:14.553Z,49.10
2022-09-04T07:28:57.190Z,49.20
2022-09-04T07:31:38.646Z,49.40
2022-09-04T07:34:33.406Z,49.40
2022-09-04T07:37:06.647Z,49.60
2022-09-04T07:40:12.917Z,49.40
2022-09-04T07:42:55.290Z,49.50
2022-09-04T07:45:32.433Z,49.60
2022-09-04T07:48:30.765Z,49.50
2022-09-04T07:51:13.288Z,49.80
2022-09-04T07:54:22.306Z,49.60
2022-09-04T07:57:43.802Z,49.70
2022-09-04T08:00:22.681Z,49.70
2022-09-04T08:03:26.739Z,49.60
2022-09-04T08:06:30.447Z,49.70
2022-09-04T08:09:12.202Z,49.50
2022-09-04T08:12:04.743Z,49.70
2022-09-04T08:14:54.410Z,49.50
2022-09-04T08:17:44.830Z,49.60
2022-09-04T08:20:48.027Z,49.60
2022-09-04T08:23:24.606Z,49.60
2022-09-04T08:26:28.850Z,49.40
2022-09-04T08:29:11.769Z,49.50
2022-09-04T08:31:50.795Z,49.40
2022-09-04T08:34:56.921Z,49.30
2022-09-04T08:38:07.265Z,49.20
2022-09-04T08:41:19.111Z,49.10
2022-09-04T08:44:29.851Z,49.20
2022-09-04T08:47:35.562Z,49.00
2022-09-04T08:50:40.121Z,49.00
2022-09-04T08:53:44.409Z,49.00
2022-09-04T08:56:35.069Z,48.80
2022-09-04T08:59:56.511Z,48.90
2022-09-04T09:02:50.313Z,48.70
2022-09-04T09:05:58.656Z,48.60
2022-09-04T09:09:19.198Z,48.50
2022-09-04T09:12:41.214Z,48.60
2022-09-04T09:15:50.990Z,48.40
2022-09-04T09:18:36.084Z,48.30
2022-09-04T09:21:49.299Z,48.20
2022-09-04T09:24:56.204Z,48.10
2022-09-04T09:28:18.061Z,48.10
2022-09-04T09:31:20.263Z,48.00
2022-09-04T09:34:26.635Z,48.00
2022-09-04T09:37:39.826Z,48.00
2022-09-04T09:40:42.761Z,47.80
2022-09-04T09:43:51.015Z,47.80
2022-09-04T09:46:54.029Z,47.60
2022-09-04T09:50:05.360Z,46.90
2022-09-04T09:53:05.877Z,47.40
2022-09-04T09:56:13.719Z,47.20
2022-09-04T09:59:24.192Z,47.60
2022-09-04T10:02:42.912Z,47.10
2022-09-04T10:05:46.946Z,47.00
2022-09-04T10:08:47.665Z,47.00
2022-09-04T10:11:56.238Z,47.00
2022-09-04T10:15:08.959Z,46.90
2022-09-04T10:18:20.753Z,46.80
2022-09-04T10:21:20.862Z,46.80
2022-09-04T10:24:26.548Z,46.50
2022-09-04T10:27:49.541Z,46.40
2022-09-04T10:30:23.046Z,46.00
2022-09-04T10:32:58.692Z,46.20
2022-09-04T10:35:48.075Z,46.10
2022-09-04T10:39:03.982Z,46.00
2022-09-04T10:42:19.960Z,45.50
2022-09-04T10:45:15.803Z,45.20
2022-09-04T10:48:35.105Z,45.10
2022-09-04T10:51:34.523Z,45.10
2022-09-04T10:54:50.841Z,45.40
2022-09-04T10:57:42.251Z,45.00
2022-09-04T11:00:19.616Z,45.10
2022-09-04T11:03:17.191Z,45.10
2022-09-04T11:06:16.496Z,44.90
2022-09-04T11:09:24.372Z,44.90
2022-09-04T11:12:30.142Z,44.60
2022-09-04T11:15:19.520Z,44.80
2022-09-04T11:18:03.583Z,44.70
2022-09-04T11:21:02.953Z,44.50
2022-09-04T11:24:21.006Z,44.30
2022-09-04T11:27:44.442Z,44.20
2022-09-04T11:30:28.718Z,44.10
2022-09-04T11:33:39.690Z,44.20
2022-09-04T11:37:09.151Z,44.10
2022-09-04T11:40:32.215Z,44.00
2022-09-04T11:43:37.430Z,44.10
2022-09-04T11:46:29.201Z,44.00
2022-09-04T11:49:13.599Z,44.10
2022-09-04T11:52:04.507Z,44.10
2022-09-04T11:54:53.094Z,43.90
2022-09-04T11:57:52.387Z,43.70
2022-09-04T12:00:19.877Z,43.80
2022-09-04T12:03:30.609Z,43.90
2022-09-04T12:06:27.997Z,43.50
2022-09-04T12:09:44.355Z,43.80
2022-09-04T12:12:45.830Z,43.20
2022-09-04T12:15:32.167Z,43.20
2022-09-04T12:18:52.082Z,43.40
2022-09-04T12:21:53.023Z,42.80
2022-09-04T12:25:20.042Z,43.10
2022-09-04T12:28:42.053Z,43.00
2022-09-04T12:31:51.828Z,43.00
2022-09-04T12:34:49.926Z,42.80
2022-09-04T12:37:50.142Z,42.80
2022-09-04T12:40:34.617Z,42.70
2022-09-04T12:43:16.839Z,42.80
2022-09-04T12:46:12.857Z,42.20
2022-09-04T12:49:26.196Z,42.50
2022-09-04T12:52:29.200Z,42.30
2022-09-04T12:55:19.494Z,42.30
2022-09-04T12:59:02.092Z,41.90
2022-09-04T13:02:02.639Z,42.00
2022-09-04T13:04:32.571Z,41.90
2022-09-04T13:07:27.231Z,42.20
2022-09-04T13:10:25.856Z,41.70
2022-09-04T13:13:24.342Z,41.40
2022-09-04T13:16:27.522Z,41.30
2022-09-04T13:19:30.415Z,41.20
2022-09-04T13:22:25.105Z,40.80
2022-09-04T13:25:28.503Z,41.20
2022-09-04T13:29:03.081Z,41.00
2022-09-04T13:32:13.088Z,40.40
2022-09-04T13:35:01.910Z,40.50
2022-09-04T13:37:51.834Z,39.80
2022-09-04T13:41:00.165Z,40.50
2022-09-04T13:44:18.483Z,39.50
2022-09-04T13:46:54.653Z,40.00
2022-09-04T13:49:39.734Z,39.70
2022-09-04T13:52:17.637Z,39.70
2022-09-04T13:54:57.509Z,39.80
2022-09-04T13:57:30.121Z,39.80
2022-09-04T14:00:07.545Z,39.80
2022-09-04T14:02:36.815Z,39.60
2022-09-04T14:05:16.564Z,39.80
2022-09-04T14:07:50.432Z,39.50
2022-09-04T14:10:25.663Z,39.60
2022-09-04T14:14:01.974Z,39.30
2022-09-04T14:16:33.856Z,38.90
2022-09-04T14:19:32.414Z,39.50
2022-09-04T14:22:38.620Z,38.90
2022-09-04T14:25:39.577Z,38.60
2022-09-04T14:28:44.527Z,38.50
2022-09-04T14:31:32.598Z,39.10
2022-09-04T14:34:19.077Z,38.50
2022-09-04T14:36:59.807Z,38.20
2022-09-04T14:40:04.718Z,39.00
2022-09-04T14:42:48.631Z,38.60
2022-09-04T14:45:19.616Z,38.10
2022-09-04T14:47:54.890Z,38.40
2022-09-04T14:50:28.525Z,38.50
2022-09-04T14:52:58.751Z,38.50
2022-09-04T14:55:31.084Z,38.20
2022-09-04T14:58:19.592Z,39.00
2022-09-04T15:01:17.028Z,38.20
2022-09-04T15:04:11.171Z,38.00
2022-09-04T15:07:09.834Z,38.10
2022-09-04T15:09:41.055Z,37.50
2022-09-04T15:12:33.693Z,38.00
2022-09-04T15:15:18.426Z,37.10
2022-09-04T15:17:57.226Z,37.60
2022-09-04T15:20:32.712Z,37.70
2022-09-04T15:23:27.529Z,37.80
2022-09-04T15:26:03.593Z,37.50
2022-09-04T15:28:53.986Z,38.00
2022-09-04T15:31:32.423Z,37.30
2022-09-04T15:34:24.389Z,37.60
2022-09-04T15:36:51.447Z,37.80
2022-09-04T15:39:35.522Z,38.00
2022-09-04T15:42:02.392Z,37.70
2022-09-04T15:44:40.552Z,38.20
2022-09-04T15:47:42.329Z,38.00
2022-09-04T15:50:24.454Z,37.70
2022-09-04T15:53:23.935Z,37.70
2022-09-04T15:56:28.277Z,37.90
2022-09-04T15:59:10.881Z,38.20
2022-09-04T16:02:02.992Z,37.80
2022-09-04T16:04:44.287Z,37.70
2022-09-04T16:07:20.431Z,37.50
2022-09-04T16:09:57.298Z,37.50
2022-09-04T16:12:33.188Z,37.40
2022-09-04T16:15:19.523Z,37.70
2022-09-04T16:17:54.504Z,37.60
2022-09-04T16:20:51.465Z,37.80
2022-09-04T16:23:29.684Z,37.50
2022-09-04T16:25:59.809Z,38.00
2022-09-04T16:28:34.603Z,38.00
2022-09-04T16:31:03.840Z,38.00
2022-09-04T16:33:44.669Z,38.00
2022-09-04T16:36:17.763Z,38.00
2022-09-04T16:39:14.439Z,38.10
2022-09-04T16:42:23.262Z,38.10
2022-09-04T16:45:25.242Z,38.20
2022-09-04T16:48:33.650Z,38.10
2022-09-04T16:51:40.387Z,38.20
2022-09-04T16:54:10.934Z,38.30
2022-09-04T16:56:42.821Z,38.40
2022-09-04T16:59:31.466Z,38.50
2022-09-04T17:02:10.609Z,38.30
2022-09-04T17:05:01.140Z,38.50
2022-09-04T17:07:40.586Z,38.60
2022-09-04T17:10:42.768Z,38.60
2022-09-04T17:13:15.589Z,38.50
2022-09-04T17:15:54.746Z,38.60
2022-09-04T17:18:28.895Z,38.80
2022-09-04T17:26:26.743Z,38.70
2022-09-04T17:29:07.712Z,38.70
2022-09-04T17:29:14.606Z,38.90
2022-09-04T17:30:52.655Z,39.00
2022-09-04T17:40:35.594Z,39.00
2022-09-04T17:40:57.153Z,39.10
2022-09-04T17:41:34.533Z,39.20
2022-09-04T17:43:32.873Z,39.30
2022-09-04T17:46:29.407Z,39.40
2022-09-04T17:48:56.595Z,39.40
2022-09-04T17:51:28.558Z,39.50
2022-09-04T17:54:01.350Z,39.50
2022-09-04T17:56:28.169Z,39.60
2022-09-04T17:59:11.636Z,39.60
2022-09-04T18:01:51.767Z,39.70
2022-09-04T18:05:20.167Z,39.80
2022-09-04T18:08:12.655Z,39.90
2022-09-04T18:10:53.762Z,40.00
2022-09-04T18:13:42.513Z,40.00
2022-09-04T18:16:47.800Z,40.20
2022-09-04T18:19:46.333Z,40.20
2022-09-04T18:22:33.378Z,40.40
2022-09-04T18:25:36.194Z,40.40
2022-09-04T18:28:19.997Z,40.60
2022-09-04T18:37:07.568Z,40.70
2022-09-04T18:37:15.824Z,40.80
2022-09-04T18:38:01.675Z,40.90
2022-09-04T18:42:37.031Z,41.00
2022-09-04T18:50:29.199Z,41.10
2022-09-04T18:50:46.758Z,41.10
2022-09-04T18:50:50.393Z,41.10
2022-09-04T18:52:54.603Z,41.20
2022-09-04T18:55:33.719Z,41.50
2022-09-04T18:58:12.770Z,41.50
2022-09-04T19:00:54.912Z,41.70
2022-09-04T19:03:48.092Z,41.60
2022-09-04T19:06:31.145Z,41.80
2022-09-04T19:09:09.374Z,41.80
2022-09-04T19:11:45.724Z,41.80
2022-09-04T19:14:26.330Z,41.90
2022-09-04T19:17:15.046Z,42.10
2022-09-04T19:19:54.698Z,42.10
2022-09-04T19:22:44.162Z,42.20
2022-09-04T19:25:33.850Z,42.20
2022-09-04T19:28:23.453Z,42.50
2022-09-04T19:31:09.204Z,42.80
2022-09-04T19:34:02.751Z,42.50
2022-09-04T19:36:53.108Z,42.60
2022-09-04T19:45:55.004Z,42.70
2022-09-04T19:46:03.816Z,42.60
2022-09-04T19:46:15.634Z,42.70
2022-09-04T19:49:14.641Z,42.80
2022-09-04T19:53:30.877Z,42.90
2022-09-04T19:55:23.586Z,43.00
2022-09-04T19:58:26.946Z,43.10
2022-09-04T20:01:04.726Z,43.20
2022-09-04T20:03:48.487Z,43.20
2022-09-04T20:06:32.504Z,43.20
2022-09-04T20:09:07.196Z,43.40
2022-09-04T20:11:46.376Z,43.30
2022-09-04T20:14:34.769Z,43.40
2022-09-04T20:17:37.486Z,43.60
2022-09-04T20:20:21.256Z,43.60
2022-09-04T20:23:00.686Z,43.70
2022-09-04T20:25:55.827Z,43.70
2022-09-04T20:28:48.376Z,43.80
2022-09-04T20:31:35.877Z,43.90
2022-09-04T20:34:19.691Z,44.00
2022-09-04T20:36:55.284Z,44.00
2022-09-04T20:39:43.565Z,44.00
2022-09-04T20:42:33.704Z,44.20
2022-09-04T20:46:40.140Z,44.10
2022-09-04T20:52:50.177Z,44.20
2022-09-04T20:52:58.240Z,44.20
2022-09-04T20:54:11.986Z,44.30
2022-09-04T21:02:36.133Z,44.50
2022-09-04T21:03:19.969Z,44.70
2022-09-04T21:03:28.861Z,44.40
2022-09-04T21:06:14.919Z,44.50
2022-09-04T21:09:24.442Z,44.70
2022-09-04T21:12:20.551Z,44.80
2022-09-04T21:14:56.642Z,44.70
2022-09-04T21:17:54.650Z,44.70
2022-09-04T21:20:59.399Z,44.90
2022-09-04T21:24:03.251Z,45.00
2022-09-04T21:27:27.376Z,45.10
2022-09-04T21:30:08.265Z,45.10
2022-09-04T21:33:28.073Z,45.00
2022-09-04T21:36:27.373Z,45.20
2022-09-04T21:39:32.910Z,45.10
2022-09-04T21:42:30.807Z,45.40
2022-09-04T21:45:43.639Z,45.10
2022-09-04T21:48:35.127Z,45.30
2022-09-04T21:51:39.573Z,45.30
2022-09-04T22:00:56.310Z,45.50
2022-09-04T22:02:31.712Z,45.50
2022-09-04T22:02:46.279Z,45.50
2022-09-04T22:04:42.406Z,45.60
2022-09-04T22:13:26.607Z,45.60
2022-09-04T22:13:30.906Z,45.50
2022-09-04T22:14:27.265Z,45.70
2022-09-04T22:17:35.388Z,45.80
2022-09-04T22:20:19.720Z,45.80
2022-09-04T22:23:25.979Z,45.70
2022-09-04T22:26:42.764Z,45.70
2022-09-04T22:29:55.402Z,46.00
2022-09-04T22:32:53.882Z,46.10
2022-09-04T22:36:13.607Z,46.00
2022-09-04T22:39:05.422Z,46.20
2022-09-04T22:42:13.722Z,46.10
2022-09-04T22:44:52.976Z,46.10
2022-09-04T22:47:56.844Z,46.00
2022-09-04T22:50:49.285Z,46.10
2022-09-04T22:53:55.004Z,46.20
2022-09-04T22:56:45.030Z,46.30
2022-09-04T22:59:52.524Z,46.40
2022-09-04T23:03:09.306Z,46.30
2022-09-04T23:08:46.927Z,46.50
2022-09-04T23:13:47.863Z,46.40
2022-09-04T23:13:52.087Z,46.70
2022-09-04T23:16:37.265Z,46.80
2022-09-04T23:26:31.102Z,46.90
2022-09-04T23:26:43.386Z,46.50
2022-09-04T23:26:48.237Z,46.80
2022-09-04T23:29:15.912Z,47.00
2022-09-04T23:32:26.424Z,46.80
2022-09-04T23:35:35.589Z,46.90
2022-09-04T23:38:52.253Z,47.10
2022-09-04T23:41:47.449Z,47.40
2022-09-04T23:45:09.312Z,47.10
2022-09-04T23:48:07.078Z,47.30
2022-09-04T23:51:04.084Z,47.30
2022-09-04T23:54:24.652Z,47.70
2022-09-04T23:57:03.331Z,47.50
